sensor_id;sensor_type;location;lat;lon;timestamp;P1;durP1;ratioP1;P2;durP2;ratioP2
2892;SDS011;1456;51.840;12.184;2022-10-16T00:01:15;0.30;;;0.30;;
2892;SDS011;1456;51.840;12.184;2022-10-16T00:03:43;0.30;;;0.30;;
2892;SDS011;1456;51.840;12.184;2022-10-16T00:06:09;0.40;;;0.40;;
2892;SDS011;1456;51.840;12.184;2022-10-16T00:08:37;0.30;;;0.20;;
2892;SDS011;1456;51.840;12.184;2022-10-16T00:11:06;0.40;;;0.30;;
2892;SDS011;1456;51.840;12.184;2022-10-16T00:13:39;0.90;;;0.70;;
2892;SDS011;1456;51.840;12.184;2022-10-16T00:16:06;0.30;;;0.27;;
2892;SDS011;1456;51.840;12.184;2022-10-16T00:18:33;0.40;;;0.40;;
2892;SDS011;1456;51.840;12.184;2022-10-16T00:21:03;0.30;;;0.20;;
2892;SDS011;1456;51.840;12.184;2022-10-16T00:23:31;0.30;;;0.30;;
2892;SDS011;1456;51.840;12.184;2022-10-16T00:25:58;0.47;;;0.47;;
2892;SDS011;1456;51.840;12.184;2022-10-16T00:28:25;0.50;;;0.50;;
2892;SDS011;1456;51.840;12.184;2022-10-16T00:30:52;0.30;;;0.20;;
2892;SDS011;1456;51.840;12.184;2022-10-16T00:33:19;0.50;;;0.37;;
2892;SDS011;1456;51.840;12.184;2022-10-16T00:35:45;1.60;;;0.40;;
2892;SDS011;1456;51.840;12.184;2022-10-16T00:38:11;0.30;;;0.20;;
2892;SDS011;1456;51.840;12.184;2022-10-16T00:40:36;0.33;;;0.30;;
2892;SDS011;1456;51.840;12.184;2022-10-16T00:43:02;0.30;;;0.20;;
2892;SDS011;1456;51.840;12.184;2022-10-16T00:45:29;0.37;;;0.37;;
2892;SDS011;1456;51.840;12.184;2022-10-16T00:47:55;0.30;;;0.20;;
2892;SDS011;1456;51.840;12.184;2022-10-16T00:52:49;0.40;;;0.40;;
2892;SDS011;1456;51.840;12.184;2022-10-16T00:55:16;0.40;;;0.40;;
2892;SDS011;1456;51.840;12.184;2022-10-16T00:57:42;0.30;;;0.30;;
2892;SDS011;1456;51.840;12.184;2022-10-16T01:00:09;0.50;;;0.30;;
2892;SDS011;1456;51.840;12.184;2022-10-16T01:02:37;0.30;;;0.30;;
2892;SDS011;1456;51.840;12.184;2022-10-16T01:05:03;0.47;;;0.47;;
2892;SDS011;1456;51.840;12.184;2022-10-16T01:07:39;0.60;;;0.30;;
2892;SDS011;1456;51.840;12.184;2022-10-16T01:16:22;0.30;;;0.20;;
2892;SDS011;1456;51.840;12.184;2022-10-16T01:18:31;0.30;;;0.30;;
2892;SDS011;1456;51.840;12.184;2022-10-16T01:21:04;3.80;;;1.10;;
2892;SDS011;1456;51.840;12.184;2022-10-16T01:29:30;0.40;;;0.40;;
2892;SDS011;1456;51.840;12.184;2022-10-16T01:32:12;0.30;;;0.20;;
2892;SDS011;1456;51.840;12.184;2022-10-16T01:37:41;0.40;;;0.40;;
2892;SDS011;1456;51.840;12.184;2022-10-16T01:40:12;0.30;;;0.20;;
2892;SDS011;1456;51.840;12.184;2022-10-16T01:42:51;0.30;;;0.20;;
2892;SDS011;1456;51.840;12.184;2022-10-16T01:45:22;0.33;;;0.33;;
2892;SDS011;1456;51.840;12.184;2022-10-16T01:47:47;0.37;;;0.33;;
2892;SDS011;1456;51.840;12.184;2022-10-16T01:50:15;0.30;;;0.30;;
2892;SDS011;1456;51.840;12.184;2022-10-16T01:52:43;1.13;;;0.37;;
2892;SDS011;1456;51.840;12.184;2022-10-16T01:55:12;0.30;;;0.30;;
2892;SDS011;1456;51.840;12.184;2022-10-16T01:57:44;0.30;;;0.30;;
2892;SDS011;1456;51.840;12.184;2022-10-16T02:00:13;0.30;;;0.30;;
2892;SDS011;1456;51.840;12.184;2022-10-16T02:02:44;0.40;;;0.40;;
2892;SDS011;1456;51.840;12.184;2022-10-16T02:07:45;0.30;;;0.20;;
2892;SDS011;1456;51.840;12.184;2022-10-16T02:10:12;0.50;;;0.30;;
2892;SDS011;1456;51.840;12.184;2022-10-16T02:12:40;0.70;;;0.40;;
2892;SDS011;1456;51.840;12.184;2022-10-16T02:15:10;0.30;;;0.20;;
2892;SDS011;1456;51.840;12.184;2022-10-16T02:17:36;0.33;;;0.30;;
2892;SDS011;1456;51.840;12.184;2022-10-16T02:20:03;0.40;;;0.33;;
2892;SDS011;1456;51.840;12.184;2022-10-16T02:22:32;0.40;;;0.30;;
2892;SDS011;1456;51.840;12.184;2022-10-16T02:25:19;0.30;;;0.30;;
2892;SDS011;1456;51.840;12.184;2022-10-16T02:33:15;0.30;;;0.30;;
2892;SDS011;1456;51.840;12.184;2022-10-16T02:35:44;0.30;;;0.30;;
2892;SDS011;1456;51.840;12.184;2022-10-16T02:38:13;0.30;;;0.30;;
2892;SDS011;1456;51.840;12.184;2022-10-16T02:40:40;0.40;;;0.40;;
2892;SDS011;1456;51.840;12.184;2022-10-16T02:43:06;0.30;;;0.27;;
2892;SDS011;1456;51.840;12.184;2022-10-16T02:45:32;0.30;;;0.20;;
2892;SDS011;1456;51.840;12.184;2022-10-16T02:47:58;0.30;;;0.30;;
2892;SDS011;1456;51.840;12.184;2022-10-16T02:50:23;0.33;;;0.33;;
2892;SDS011;1456;51.840;12.184;2022-10-16T02:52:50;1.53;;;0.97;;
2892;SDS011;1456;51.840;12.184;2022-10-16T02:55:16;0.40;;;0.30;;
2892;SDS011;1456;51.840;12.184;2022-10-16T02:57:41;0.87;;;0.50;;
2892;SDS011;1456;51.840;12.184;2022-10-16T03:00:08;0.30;;;0.30;;
2892;SDS011;1456;51.840;12.184;2022-10-16T03:02:36;0.53;;;0.53;;
2892;SDS011;1456;51.840;12.184;2022-10-16T03:05:02;0.30;;;0.30;;
2892;SDS011;1456;51.840;12.184;2022-10-16T03:07:28;0.30;;;0.30;;
2892;SDS011;1456;51.840;12.184;2022-10-16T03:09:54;0.30;;;0.30;;
2892;SDS011;1456;51.840;12.184;2022-10-16T03:12:20;0.40;;;0.40;;
2892;SDS011;1456;51.840;12.184;2022-10-16T03:14:46;0.30;;;0.30;;
2892;SDS011;1456;51.840;12.184;2022-10-16T03:17:12;0.60;;;0.60;;
2892;SDS011;1456;51.840;12.184;2022-10-16T03:19:39;0.30;;;0.20;;
2892;SDS011;1456;51.840;12.184;2022-10-16T03:22:05;0.40;;;0.40;;
2892;SDS011;1456;51.840;12.184;2022-10-16T03:24:30;0.40;;;0.40;;
2892;SDS011;1456;51.840;12.184;2022-10-16T03:26:56;0.30;;;0.30;;
2892;SDS011;1456;51.840;12.184;2022-10-16T03:29:22;0.33;;;0.33;;
2892;SDS011;1456;51.840;12.184;2022-10-16T03:31:48;0.30;;;0.20;;
2892;SDS011;1456;51.840;12.184;2022-10-16T03:34:14;1.77;;;1.07;;
2892;SDS011;1456;51.840;12.184;2022-10-16T03:36:40;0.30;;;0.30;;
2892;SDS011;1456;51.840;12.184;2022-10-16T03:39:06;1.70;;;0.63;;
2892;SDS011;1456;51.840;12.184;2022-10-16T03:41:31;0.30;;;0.30;;
2892;SDS011;1456;51.840;12.184;2022-10-16T03:43:57;0.30;;;0.30;;
2892;SDS011;1456;51.840;12.184;2022-10-16T03:46:23;0.40;;;0.40;;
2892;SDS011;1456;51.840;12.184;2022-10-16T03:48:48;0.40;;;0.40;;
2892;SDS011;1456;51.840;12.184;2022-10-16T03:51:14;0.30;;;0.30;;
2892;SDS011;1456;51.840;12.184;2022-10-16T03:53:40;0.30;;;0.30;;
2892;SDS011;1456;51.840;12.184;2022-10-16T03:56:06;0.57;;;0.40;;
2892;SDS011;1456;51.840;12.184;2022-10-16T03:58:31;0.30;;;0.27;;
2892;SDS011;1456;51.840;12.184;2022-10-16T04:00:57;0.30;;;0.30;;
2892;SDS011;1456;51.840;12.184;2022-10-16T04:03:23;0.30;;;0.30;;
2892;SDS011;1456;51.840;12.184;2022-10-16T04:05:49;0.30;;;0.30;;
2892;SDS011;1456;51.840;12.184;2022-10-16T04:08:14;0.80;;;0.80;;
2892;SDS011;1456;51.840;12.184;2022-10-16T04:10:42;0.63;;;0.50;;
2892;SDS011;1456;51.840;12.184;2022-10-16T04:13:08;0.87;;;0.87;;
2892;SDS011;1456;51.840;12.184;2022-10-16T04:15:34;0.30;;;0.30;;
2892;SDS011;1456;51.840;12.184;2022-10-16T04:18:00;0.30;;;0.27;;
2892;SDS011;1456;51.840;12.184;2022-10-16T04:20:26;0.40;;;0.40;;
2892;SDS011;1456;51.840;12.184;2022-10-16T04:22:52;0.30;;;0.27;;
2892;SDS011;1456;51.840;12.184;2022-10-16T04:25:18;0.40;;;0.40;;
2892;SDS011;1456;51.840;12.184;2022-10-16T04:27:44;0.30;;;0.30;;
2892;SDS011;1456;51.840;12.184;2022-10-16T04:30:09;0.40;;;0.40;;
2892;SDS011;1456;51.840;12.184;2022-10-16T04:32:35;0.40;;;0.40;;
2892;SDS011;1456;51.840;12.184;2022-10-16T04:35:01;0.40;;;0.37;;
2892;SDS011;1456;51.840;12.184;2022-10-16T04:37:27;0.57;;;0.43;;
2892;SDS011;1456;51.840;12.184;2022-10-16T04:39:53;0.40;;;0.30;;
2892;SDS011;1456;51.840;12.184;2022-10-16T04:42:19;0.30;;;0.30;;
2892;SDS011;1456;51.840;12.184;2022-10-16T04:44:45;0.30;;;0.30;;
2892;SDS011;1456;51.840;12.184;2022-10-16T04:47:12;0.50;;;0.50;;
2892;SDS011;1456;51.840;12.184;2022-10-16T04:49:38;0.30;;;0.30;;
2892;SDS011;1456;51.840;12.184;2022-10-16T04:52:04;0.40;;;0.30;;
2892;SDS011;1456;51.840;12.184;2022-10-16T04:54:29;0.40;;;0.30;;
2892;SDS011;1456;51.840;12.184;2022-10-16T04:56:55;0.30;;;0.27;;
2892;SDS011;1456;51.840;12.184;2022-10-16T04:59:21;0.30;;;0.30;;
2892;SDS011;1456;51.840;12.184;2022-10-16T05:01:47;0.40;;;0.40;;
2892;SDS011;1456;51.840;12.184;2022-10-16T05:04:14;0.47;;;0.37;;
2892;SDS011;1456;51.840;12.184;2022-10-16T05:06:40;0.30;;;0.20;;
2892;SDS011;1456;51.840;12.184;2022-10-16T05:09:06;0.40;;;0.40;;
2892;SDS011;1456;51.840;12.184;2022-10-16T05:11:33;0.30;;;0.30;;
2892;SDS011;1456;51.840;12.184;2022-10-16T05:13:59;0.40;;;0.40;;
2892;SDS011;1456;51.840;12.184;2022-10-16T05:16:25;0.50;;;0.40;;
2892;SDS011;1456;51.840;12.184;2022-10-16T05:18:52;0.30;;;0.30;;
2892;SDS011;1456;51.840;12.184;2022-10-16T05:21:19;0.30;;;0.30;;
2892;SDS011;1456;51.840;12.184;2022-10-16T05:23:44;0.30;;;0.20;;
2892;SDS011;1456;51.840;12.184;2022-10-16T05:26:10;0.30;;;0.27;;
2892;SDS011;1456;51.840;12.184;2022-10-16T05:28:36;0.30;;;0.20;;
2892;SDS011;1456;51.840;12.184;2022-10-16T05:31:05;0.40;;;0.40;;
2892;SDS011;1456;51.840;12.184;2022-10-16T05:33:31;0.30;;;0.20;;
2892;SDS011;1456;51.840;12.184;2022-10-16T05:36:00;0.50;;;0.30;;
2892;SDS011;1456;51.840;12.184;2022-10-16T05:38:31;0.30;;;0.30;;
2892;SDS011;1456;51.840;12.184;2022-10-16T05:40:56;0.30;;;0.30;;
2892;SDS011;1456;51.840;12.184;2022-10-16T05:43:23;0.40;;;0.40;;
2892;SDS011;1456;51.840;12.184;2022-10-16T05:46:04;0.30;;;0.20;;
2892;SDS011;1456;51.840;12.184;2022-10-16T05:48:31;0.30;;;0.30;;
2892;SDS011;1456;51.840;12.184;2022-10-16T05:50:58;0.30;;;0.30;;
2892;SDS011;1456;51.840;12.184;2022-10-16T05:53:29;0.30;;;0.20;;
2892;SDS011;1456;51.840;12.184;2022-10-16T05:55:56;0.30;;;0.20;;
2892;SDS011;1456;51.840;12.184;2022-10-16T05:58:22;0.30;;;0.27;;
2892;SDS011;1456;51.840;12.184;2022-10-16T06:00:59;0.30;;;0.30;;
2892;SDS011;1456;51.840;12.184;2022-10-16T06:03:30;1.07;;;0.30;;
2892;SDS011;1456;51.840;12.184;2022-10-16T06:05:55;0.33;;;0.33;;
2892;SDS011;1456;51.840;12.184;2022-10-16T06:08:22;0.50;;;0.50;;
2892;SDS011;1456;51.840;12.184;2022-10-16T06:10:48;0.40;;;0.30;;
2892;SDS011;1456;51.840;12.184;2022-10-16T06:13:14;0.50;;;0.47;;
2892;SDS011;1456;51.840;12.184;2022-10-16T06:15:41;0.37;;;0.37;;
2892;SDS011;1456;51.840;12.184;2022-10-16T06:18:08;0.77;;;0.47;;
2892;SDS011;1456;51.840;12.184;2022-10-16T06:20:34;0.30;;;0.30;;
2892;SDS011;1456;51.840;12.184;2022-10-16T06:23:01;0.47;;;0.30;;
2892;SDS011;1456;51.840;12.184;2022-10-16T06:25:27;0.30;;;0.30;;
2892;SDS011;1456;51.840;12.184;2022-10-16T06:27:52;0.33;;;0.30;;
2892;SDS011;1456;51.840;12.184;2022-10-16T06:30:18;0.30;;;0.20;;
2892;SDS011;1456;51.840;12.184;2022-10-16T06:32:44;0.40;;;0.40;;
2892;SDS011;1456;51.840;12.184;2022-10-16T06:35:09;0.30;;;0.30;;
2892;SDS011;1456;51.840;12.184;2022-10-16T06:37:35;0.30;;;0.27;;
2892;SDS011;1456;51.840;12.184;2022-10-16T06:40:00;0.30;;;0.20;;
2892;SDS011;1456;51.840;12.184;2022-10-16T06:42:29;0.30;;;0.20;;
2892;SDS011;1456;51.840;12.184;2022-10-16T06:44:55;0.37;;;0.33;;
2892;SDS011;1456;51.840;12.184;2022-10-16T06:47:20;0.40;;;0.40;;
2892;SDS011;1456;51.840;12.184;2022-10-16T06:49:46;0.40;;;0.40;;
2892;SDS011;1456;51.840;12.184;2022-10-16T06:52:12;0.30;;;0.20;;
2892;SDS011;1456;51.840;12.184;2022-10-16T06:54:37;0.40;;;0.40;;
2892;SDS011;1456;51.840;12.184;2022-10-16T06:57:03;0.40;;;0.30;;
2892;SDS011;1456;51.840;12.184;2022-10-16T06:59:30;0.60;;;0.50;;
2892;SDS011;1456;51.840;12.184;2022-10-16T07:01:55;0.30;;;0.20;;
2892;SDS011;1456;51.840;12.184;2022-10-16T07:04:21;0.30;;;0.30;;
2892;SDS011;1456;51.840;12.184;2022-10-16T07:06:46;0.30;;;0.20;;
2892;SDS011;1456;51.840;12.184;2022-10-16T07:09:12;0.30;;;0.20;;
2892;SDS011;1456;51.840;12.184;2022-10-16T07:11:38;0.40;;;0.30;;
2892;SDS011;1456;51.840;12.184;2022-10-16T07:14:05;0.30;;;0.20;;
2892;SDS011;1456;51.840;12.184;2022-10-16T07:16:42;0.30;;;0.30;;
2892;SDS011;1456;51.840;12.184;2022-10-16T07:19:08;0.30;;;0.30;;
2892;SDS011;1456;51.840;12.184;2022-10-16T07:21:35;0.60;;;0.60;;
2892;SDS011;1456;51.840;12.184;2022-10-16T07:24:01;0.30;;;0.30;;
2892;SDS011;1456;51.840;12.184;2022-10-16T07:29:01;0.30;;;0.30;;
2892;SDS011;1456;51.840;12.184;2022-10-16T07:31:28;0.50;;;0.40;;
2892;SDS011;1456;51.840;12.184;2022-10-16T07:33:54;1.33;;;1.17;;
2892;SDS011;1456;51.840;12.184;2022-10-16T07:36:20;1.90;;;1.80;;
2892;SDS011;1456;51.840;12.184;2022-10-16T07:38:47;1.07;;;1.07;;
2892;SDS011;1456;51.840;12.184;2022-10-16T07:41:17;0.67;;;0.67;;
2892;SDS011;1456;51.840;12.184;2022-10-16T07:43:52;1.90;;;1.70;;
2892;SDS011;1456;51.840;12.184;2022-10-16T07:46:18;1.90;;;1.90;;
2892;SDS011;1456;51.840;12.184;2022-10-16T07:48:46;1.43;;;0.30;;
2892;SDS011;1456;51.840;12.184;2022-10-16T07:51:13;0.90;;;0.90;;
2892;SDS011;1456;51.840;12.184;2022-10-16T07:53:43;1.57;;;0.70;;
2892;SDS011;1456;51.840;12.184;2022-10-16T07:56:12;0.30;;;0.20;;
2892;SDS011;1456;51.840;12.184;2022-10-16T07:58:40;0.30;;;0.20;;
2892;SDS011;1456;51.840;12.184;2022-10-16T08:01:11;0.30;;;0.20;;
2892;SDS011;1456;51.840;12.184;2022-10-16T08:03:41;0.40;;;0.20;;
2892;SDS011;1456;51.840;12.184;2022-10-16T08:06:08;4.17;;;3.77;;
2892;SDS011;1456;51.840;12.184;2022-10-16T08:08:38;6.17;;;5.70;;
2892;SDS011;1456;51.840;12.184;2022-10-16T08:11:05;5.00;;;4.70;;
2892;SDS011;1456;51.840;12.184;2022-10-16T08:13:31;3.13;;;1.60;;
2892;SDS011;1456;51.840;12.184;2022-10-16T08:15:59;0.60;;;0.50;;
2892;SDS011;1456;51.840;12.184;2022-10-16T08:18:25;0.30;;;0.30;;
2892;SDS011;1456;51.840;12.184;2022-10-16T08:21:01;0.30;;;0.30;;
2892;SDS011;1456;51.840;12.184;2022-10-16T08:23:27;0.67;;;0.60;;
2892;SDS011;1456;51.840;12.184;2022-10-16T08:25:55;0.57;;;0.37;;
2892;SDS011;1456;51.840;12.184;2022-10-16T08:28:29;0.40;;;0.30;;
2892;SDS011;1456;51.840;12.184;2022-10-16T08:33:37;0.30;;;0.20;;
2892;SDS011;1456;51.840;12.184;2022-10-16T08:36:05;3.30;;;0.50;;
2892;SDS011;1456;51.840;12.184;2022-10-16T08:38:34;0.30;;;0.30;;
2892;SDS011;1456;51.840;12.184;2022-10-16T08:46:54;0.30;;;0.20;;
2892;SDS011;1456;51.840;12.184;2022-10-16T08:49:25;1.73;;;0.50;;
2892;SDS011;1456;51.840;12.184;2022-10-16T08:52:03;0.30;;;0.30;;
2892;SDS011;1456;51.840;12.184;2022-10-16T08:54:37;0.40;;;0.40;;
2892;SDS011;1456;51.840;12.184;2022-10-16T08:57:16;0.30;;;0.20;;
2892;SDS011;1456;51.840;12.184;2022-10-16T08:59:45;0.30;;;0.20;;
2892;SDS011;1456;51.840;12.184;2022-10-16T09:02:24;0.30;;;0.30;;
2892;SDS011;1456;51.840;12.184;2022-10-16T09:07:42;0.40;;;0.30;;
2892;SDS011;1456;51.840;12.184;2022-10-16T09:10:29;0.30;;;0.20;;
2892;SDS011;1456;51.840;12.184;2022-10-16T09:13:03;0.30;;;0.30;;
2892;SDS011;1456;51.840;12.184;2022-10-16T09:16:13;0.30;;;0.20;;
2892;SDS011;1456;51.840;12.184;2022-10-16T09:21:48;0.30;;;0.30;;
2892;SDS011;1456;51.840;12.184;2022-10-16T09:24:26;0.30;;;0.20;;
2892;SDS011;1456;51.840;12.184;2022-10-16T09:26:52;0.30;;;0.30;;
2892;SDS011;1456;51.840;12.184;2022-10-16T09:29:19;0.30;;;0.30;;
2892;SDS011;1456;51.840;12.184;2022-10-16T09:31:47;0.30;;;0.30;;
2892;SDS011;1456;51.840;12.184;2022-10-16T09:34:30;0.40;;;0.40;;
2892;SDS011;1456;51.840;12.184;2022-10-16T09:37:08;0.50;;;0.50;;
2892;SDS011;1456;51.840;12.184;2022-10-16T09:39:46;0.50;;;0.50;;
2892;SDS011;1456;51.840;12.184;2022-10-16T09:42:18;0.40;;;0.40;;
2892;SDS011;1456;51.840;12.184;2022-10-16T09:44:51;0.40;;;0.40;;
2892;SDS011;1456;51.840;12.184;2022-10-16T09:47:20;0.40;;;0.40;;
2892;SDS011;1456;51.840;12.184;2022-10-16T09:52:18;0.50;;;0.40;;
2892;SDS011;1456;51.840;12.184;2022-10-16T09:55:00;0.70;;;0.70;;
2892;SDS011;1456;51.840;12.184;2022-10-16T09:57:27;0.40;;;0.40;;
2892;SDS011;1456;51.840;12.184;2022-10-16T09:59:55;0.60;;;0.60;;
2892;SDS011;1456;51.840;12.184;2022-10-16T10:04:56;0.87;;;0.83;;
2892;SDS011;1456;51.840;12.184;2022-10-16T10:07:32;0.70;;;0.70;;
2892;SDS011;1456;51.840;12.184;2022-10-16T10:10:01;1.33;;;1.23;;
2892;SDS011;1456;51.840;12.184;2022-10-16T10:12:32;48.10;;;2.47;;
2892;SDS011;1456;51.840;12.184;2022-10-16T10:15:20;0.90;;;0.90;;
2892;SDS011;1456;51.840;12.184;2022-10-16T10:17:50;0.70;;;0.70;;
2892;SDS011;1456;51.840;12.184;2022-10-16T10:20:25;0.70;;;0.70;;
2892;SDS011;1456;51.840;12.184;2022-10-16T10:22:53;0.60;;;0.60;;
2892;SDS011;1456;51.840;12.184;2022-10-16T10:45:50;2.33;;;2.33;;
2892;SDS011;1456;51.840;12.184;2022-10-16T10:51:03;2.93;;;2.93;;
2892;SDS011;1456;51.840;12.184;2022-10-16T10:53:48;2.40;;;2.40;;
2892;SDS011;1456;51.840;12.184;2022-10-16T11:02:04;2.23;;;2.23;;
2892;SDS011;1456;51.840;12.184;2022-10-16T11:07:51;1.10;;;1.10;;
2892;SDS011;1456;51.840;12.184;2022-10-16T11:10:23;1.50;;;1.50;;
2892;SDS011;1456;51.840;12.184;2022-10-16T11:16:22;1.67;;;1.67;;
2892;SDS011;1456;51.840;12.184;2022-10-16T11:21:43;3.17;;;3.17;;
2892;SDS011;1456;51.840;12.184;2022-10-16T11:24:33;2.87;;;2.87;;
2892;SDS011;1456;51.840;12.184;2022-10-16T11:27:08;3.80;;;3.80;;
2892;SDS011;1456;51.840;12.184;2022-10-16T11:29:43;4.50;;;4.50;;
2892;SDS011;1456;51.840;12.184;2022-10-16T11:32:27;4.40;;;4.30;;
2892;SDS011;1456;51.840;12.184;2022-10-16T11:35:19;4.80;;;4.80;;
2892;SDS011;1456;51.840;12.184;2022-10-16T11:37:51;4.90;;;4.90;;
2892;SDS011;1456;51.840;12.184;2022-10-16T11:40:31;5.60;;;5.60;;
2892;SDS011;1456;51.840;12.184;2022-10-16T11:43:02;5.80;;;5.80;;
2892;SDS011;1456;51.840;12.184;2022-10-16T11:48:08;6.40;;;6.30;;
2892;SDS011;1456;51.840;12.184;2022-10-16T11:56:15;6.00;;;6.00;;
2892;SDS011;1456;51.840;12.184;2022-10-16T12:01:38;6.57;;;6.50;;
2892;SDS011;1456;51.840;12.184;2022-10-16T12:04:15;6.90;;;6.80;;
2892;SDS011;1456;51.840;12.184;2022-10-16T12:06:52;6.10;;;6.00;;
2892;SDS011;1456;51.840;12.184;2022-10-16T12:09:25;6.23;;;6.13;;
2892;SDS011;1456;51.840;12.184;2022-10-16T12:11:52;6.30;;;6.30;;
2892;SDS011;1456;51.840;12.184;2022-10-16T12:14:20;5.40;;;5.30;;
2892;SDS011;1456;51.840;12.184;2022-10-16T12:17:00;4.60;;;4.60;;
2892;SDS011;1456;51.840;12.184;2022-10-16T12:19:58;4.40;;;4.40;;
2892;SDS011;1456;51.840;12.184;2022-10-16T12:22:52;3.90;;;3.90;;
2892;SDS011;1456;51.840;12.184;2022-10-16T12:25:31;4.40;;;4.40;;
2892;SDS011;1456;51.840;12.184;2022-10-16T12:28:18;5.30;;;5.30;;
2892;SDS011;1456;51.840;12.184;2022-10-16T12:30:52;5.67;;;5.67;;
2892;SDS011;1456;51.840;12.184;2022-10-16T12:33:28;6.20;;;6.20;;
2892;SDS011;1456;51.840;12.184;2022-10-16T12:35:55;6.20;;;6.20;;
2892;SDS011;1456;51.840;12.184;2022-10-16T12:38:28;6.40;;;6.40;;
2892;SDS011;1456;51.840;12.184;2022-10-16T12:41:23;6.57;;;6.50;;
2892;SDS011;1456;51.840;12.184;2022-10-16T12:43:51;7.03;;;6.93;;
2892;SDS011;1456;51.840;12.184;2022-10-16T12:48:43;6.60;;;6.60;;
2892;SDS011;1456;51.840;12.184;2022-10-16T13:00:13;7.20;;;7.10;;
2892;SDS011;1456;51.840;12.184;2022-10-16T13:05:31;7.77;;;7.67;;
2892;SDS011;1456;51.840;12.184;2022-10-16T13:11:08;7.70;;;7.60;;
2892;SDS011;1456;51.840;12.184;2022-10-16T13:24:45;7.97;;;7.87;;
2892;SDS011;1456;51.840;12.184;2022-10-16T13:32:50;8.07;;;7.97;;
2892;SDS011;1456;51.840;12.184;2022-10-16T13:35:27;7.60;;;7.50;;
2892;SDS011;1456;51.840;12.184;2022-10-16T13:38:12;8.00;;;7.90;;
2892;SDS011;1456;51.840;12.184;2022-10-16T13:43:44;8.00;;;7.90;;
2892;SDS011;1456;51.840;12.184;2022-10-16T13:46:18;8.70;;;8.60;;
2892;SDS011;1456;51.840;12.184;2022-10-16T13:48:55;8.10;;;8.00;;
2892;SDS011;1456;51.840;12.184;2022-10-16T13:51:22;8.30;;;8.20;;
2892;SDS011;1456;51.840;12.184;2022-10-16T13:53:48;8.07;;;7.97;;
2892;SDS011;1456;51.840;12.184;2022-10-16T13:56:15;8.40;;;8.30;;
2892;SDS011;1456;51.840;12.184;2022-10-16T13:58:43;8.57;;;8.47;;
2892;SDS011;1456;51.840;12.184;2022-10-16T14:01:17;9.27;;;9.17;;
2892;SDS011;1456;51.840;12.184;2022-10-16T14:03:45;9.77;;;9.67;;
2892;SDS011;1456;51.840;12.184;2022-10-16T14:06:19;10.07;;;9.87;;
2892;SDS011;1456;51.840;12.184;2022-10-16T14:08:50;9.63;;;9.53;;
2892;SDS011;1456;51.840;12.184;2022-10-16T14:11:22;9.77;;;9.67;;
2892;SDS011;1456;51.840;12.184;2022-10-16T14:13:49;9.97;;;9.87;;
2892;SDS011;1456;51.840;12.184;2022-10-16T14:16:16;9.73;;;9.63;;
2892;SDS011;1456;51.840;12.184;2022-10-16T14:18:58;10.03;;;9.93;;
2892;SDS011;1456;51.840;12.184;2022-10-16T14:21:27;9.80;;;9.70;;
2892;SDS011;1456;51.840;12.184;2022-10-16T14:23:53;9.43;;;9.33;;
2892;SDS011;1456;51.840;12.184;2022-10-16T14:26:22;9.30;;;9.20;;
2892;SDS011;1456;51.840;12.184;2022-10-16T14:28:49;9.10;;;9.00;;
2892;SDS011;1456;51.840;12.184;2022-10-16T14:31:33;8.73;;;8.63;;
2892;SDS011;1456;51.840;12.184;2022-10-16T14:34:00;9.20;;;9.10;;
2892;SDS011;1456;51.840;12.184;2022-10-16T14:36:27;9.43;;;9.33;;
2892;SDS011;1456;51.840;12.184;2022-10-16T14:38:58;9.67;;;9.57;;
2892;SDS011;1456;51.840;12.184;2022-10-16T14:41:25;8.90;;;8.80;;
2892;SDS011;1456;51.840;12.184;2022-10-16T14:43:53;9.00;;;8.90;;
2892;SDS011;1456;51.840;12.184;2022-10-16T14:46:21;9.67;;;9.57;;
2892;SDS011;1456;51.840;12.184;2022-10-16T14:48:55;9.60;;;9.50;;
2892;SDS011;1456;51.840;12.184;2022-10-16T14:51:45;9.87;;;9.77;;
2892;SDS011;1456;51.840;12.184;2022-10-16T14:54:15;18.10;;;12.20;;
2892;SDS011;1456;51.840;12.184;2022-10-16T14:59:13;10.50;;;10.23;;
2892;SDS011;1456;51.840;12.184;2022-10-16T15:01:56;14.00;;;12.73;;
2892;SDS011;1456;51.840;12.184;2022-10-16T15:04:22;19.67;;;12.10;;
2892;SDS011;1456;51.840;12.184;2022-10-16T15:06:47;28.57;;;12.53;;
2892;SDS011;1456;51.840;12.184;2022-10-16T15:09:14;9.20;;;9.10;;
2892;SDS011;1456;51.840;12.184;2022-10-16T15:11:40;12.37;;;11.17;;
2892;SDS011;1456;51.840;12.184;2022-10-16T15:14:08;20.53;;;13.13;;
2892;SDS011;1456;51.840;12.184;2022-10-16T15:16:37;9.40;;;9.20;;
2892;SDS011;1456;51.840;12.184;2022-10-16T15:19:03;39.83;;;16.57;;
2892;SDS011;1456;51.840;12.184;2022-10-16T15:21:30;16.40;;;13.83;;
2892;SDS011;1456;51.840;12.184;2022-10-16T15:23:57;9.20;;;9.00;;
2892;SDS011;1456;51.840;12.184;2022-10-16T15:26:24;18.77;;;14.07;;
2892;SDS011;1456;51.840;12.184;2022-10-16T15:28:54;8.53;;;8.23;;
2892;SDS011;1456;51.840;12.184;2022-10-16T15:31:21;9.33;;;9.17;;
2892;SDS011;1456;51.840;12.184;2022-10-16T15:33:49;7.77;;;7.63;;
2892;SDS011;1456;51.840;12.184;2022-10-16T15:36:24;7.70;;;7.60;;
2892;SDS011;1456;51.840;12.184;2022-10-16T15:38:51;8.30;;;8.20;;
2892;SDS011;1456;51.840;12.184;2022-10-16T15:41:18;8.87;;;8.47;;
2892;SDS011;1456;51.840;12.184;2022-10-16T15:43:43;7.10;;;7.00;;
2892;SDS011;1456;51.840;12.184;2022-10-16T15:46:10;9.10;;;8.83;;
2892;SDS011;1456;51.840;12.184;2022-10-16T15:48:39;7.23;;;7.03;;
2892;SDS011;1456;51.840;12.184;2022-10-16T15:51:05;8.30;;;7.73;;
2892;SDS011;1456;51.840;12.184;2022-10-16T15:53:32;7.20;;;7.10;;
2892;SDS011;1456;51.840;12.184;2022-10-16T15:56:02;7.03;;;6.93;;
2892;SDS011;1456;51.840;12.184;2022-10-16T15:58:29;6.70;;;6.60;;
2892;SDS011;1456;51.840;12.184;2022-10-16T16:00:55;7.07;;;6.97;;
2892;SDS011;1456;51.840;12.184;2022-10-16T16:03:22;6.47;;;6.37;;
2892;SDS011;1456;51.840;12.184;2022-10-16T16:05:48;5.40;;;5.30;;
2892;SDS011;1456;51.840;12.184;2022-10-16T16:08:14;5.30;;;5.20;;
2892;SDS011;1456;51.840;12.184;2022-10-16T16:10:40;4.40;;;4.40;;
2892;SDS011;1456;51.840;12.184;2022-10-16T16:13:05;4.70;;;4.70;;
2892;SDS011;1456;51.840;12.184;2022-10-16T16:15:31;5.10;;;5.10;;
2892;SDS011;1456;51.840;12.184;2022-10-16T16:17:57;4.53;;;4.47;;
2892;SDS011;1456;51.840;12.184;2022-10-16T16:20:23;3.47;;;3.47;;
2892;SDS011;1456;51.840;12.184;2022-10-16T16:22:49;3.30;;;3.30;;
2892;SDS011;1456;51.840;12.184;2022-10-16T16:25:14;3.47;;;3.47;;
2892;SDS011;1456;51.840;12.184;2022-10-16T16:27:42;3.60;;;3.60;;
2892;SDS011;1456;51.840;12.184;2022-10-16T16:30:10;3.90;;;3.70;;
2892;SDS011;1456;51.840;12.184;2022-10-16T16:32:36;2.97;;;2.97;;
2892;SDS011;1456;51.840;12.184;2022-10-16T16:35:02;3.70;;;3.70;;
2892;SDS011;1456;51.840;12.184;2022-10-16T16:37:30;3.43;;;3.43;;
2892;SDS011;1456;51.840;12.184;2022-10-16T16:39:56;3.30;;;3.30;;
2892;SDS011;1456;51.840;12.184;2022-10-16T16:42:26;3.67;;;3.63;;
2892;SDS011;1456;51.840;12.184;2022-10-16T16:44:53;2.30;;;2.30;;
2892;SDS011;1456;51.840;12.184;2022-10-16T16:47:19;2.97;;;2.97;;
2892;SDS011;1456;51.840;12.184;2022-10-16T16:49:46;3.10;;;3.07;;
2892;SDS011;1456;51.840;12.184;2022-10-16T16:52:12;4.23;;;4.03;;
2892;SDS011;1456;51.840;12.184;2022-10-16T16:54:38;2.60;;;2.60;;
2892;SDS011;1456;51.840;12.184;2022-10-16T16:57:04;3.63;;;3.00;;
2892;SDS011;1456;51.840;12.184;2022-10-16T16:59:30;3.83;;;3.53;;
2892;SDS011;1456;51.840;12.184;2022-10-16T17:01:57;4.43;;;2.70;;
2892;SDS011;1456;51.840;12.184;2022-10-16T17:04:25;4.00;;;3.90;;
2892;SDS011;1456;51.840;12.184;2022-10-16T17:06:52;3.40;;;3.30;;
2892;SDS011;1456;51.840;12.184;2022-10-16T17:09:20;3.27;;;3.17;;
2892;SDS011;1456;51.840;12.184;2022-10-16T17:11:47;4.50;;;4.40;;
2892;SDS011;1456;51.840;12.184;2022-10-16T17:14:13;7.33;;;6.93;;
2892;SDS011;1456;51.840;12.184;2022-10-16T17:16:39;3.87;;;3.77;;
2892;SDS011;1456;51.840;12.184;2022-10-16T17:19:10;4.40;;;4.30;;
2892;SDS011;1456;51.840;12.184;2022-10-16T17:21:41;4.23;;;4.00;;
2892;SDS011;1456;51.840;12.184;2022-10-16T17:24:07;2.80;;;2.70;;
2892;SDS011;1456;51.840;12.184;2022-10-16T17:26:36;3.70;;;3.60;;
2892;SDS011;1456;51.840;12.184;2022-10-16T17:29:04;1.80;;;1.80;;